sensor_id;sensor_type;location;lat;lon;timestamp;temperature;humidity
48994;DHT22;34804;49.214;12.276;2024-03-06T00:01:56;5.40;92.50
48994;DHT22;34804;49.214;12.276;2024-03-06T00:04:23;5.30;92.20
48994;DHT22;34804;49.214;12.276;2024-03-06T00:06:50;5.20;92.10
48994;DHT22;34804;49.214;12.276;2024-03-06T00:09:19;5.00;91.70
48994;DHT22;34804;49.214;12.276;2024-03-06T00:11:46;5.00;91.90
48994;DHT22;34804;49.214;12.276;2024-03-06T00:14:13;4.90;91.40
48994;DHT22;34804;49.214;12.276;2024-03-06T00:16:40;4.90;91.50
48994;DHT22;34804;49.214;12.276;2024-03-06T00:19:07;4.90;91.30
48994;DHT22;34804;49.214;12.276;2024-03-06T00:21:34;4.90;91.70
48994;DHT22;34804;49.214;12.276;2024-03-06T00:24:03;4.90;91.90
48994;DHT22;34804;49.214;12.276;2024-03-06T00:26:30;5.00;92.00
48994;DHT22;34804;49.214;12.276;2024-03-06T00:28:57;5.00;92.20
48994;DHT22;34804;49.214;12.276;2024-03-06T00:31:24;5.00;92.40
48994;DHT22;34804;49.214;12.276;2024-03-06T00:33:51;5.10;92.80
48994;DHT22;34804;49.214;12.276;2024-03-06T00:36:18;5.20;92.90
48994;DHT22;34804;49.214;12.276;2024-03-06T00:38:45;5.30;92.80
48994;DHT22;34804;49.214;12.276;2024-03-06T00:41:12;5.40;92.70
48994;DHT22;34804;49.214;12.276;2024-03-06T00:43:39;5.40;91.90
48994;DHT22;34804;49.214;12.276;2024-03-06T00:46:06;5.40;92.10
48994;DHT22;34804;49.214;12.276;2024-03-06T00:48:33;5.30;91.90
48994;DHT22;34804;49.214;12.276;2024-03-06T00:51:00;5.30;91.70
48994;DHT22;34804;49.214;12.276;2024-03-06T00:53:27;5.30;91.50
48994;DHT22;34804;49.214;12.276;2024-03-06T00:55:54;5.30;91.70
48994;DHT22;34804;49.214;12.276;2024-03-06T00:58:21;5.30;91.70
48994;DHT22;34804;49.214;12.276;2024-03-06T01:00:47;5.30;91.90
48994;DHT22;34804;49.214;12.276;2024-03-06T01:03:14;5.30;92.10
48994;DHT22;34804;49.214;12.276;2024-03-06T01:05:42;5.30;92.40
48994;DHT22;34804;49.214;12.276;2024-03-06T01:08:09;5.30;92.50
48994;DHT22;34804;49.214;12.276;2024-03-06T01:10:36;5.30;92.30
48994;DHT22;34804;49.214;12.276;2024-03-06T01:13:02;5.30;92.50
48994;DHT22;34804;49.214;12.276;2024-03-06T01:15:29;5.30;92.70
48994;DHT22;34804;49.214;12.276;2024-03-06T01:17:56;5.30;92.50
48994;DHT22;34804;49.214;12.276;2024-03-06T01:20:24;5.30;92.50
48994;DHT22;34804;49.214;12.276;2024-03-06T01:22:51;5.30;92.50
48994;DHT22;34804;49.214;12.276;2024-03-06T01:25:18;5.30;92.50
48994;DHT22;34804;49.214;12.276;2024-03-06T01:27:45;5.30;92.50
48994;DHT22;34804;49.214;12.276;2024-03-06T01:30:12;5.30;92.60
48994;DHT22;34804;49.214;12.276;2024-03-06T01:32:39;5.30;92.60
48994;DHT22;34804;49.214;12.276;2024-03-06T01:35:06;5.30;92.70
48994;DHT22;34804;49.214;12.276;2024-03-06T01:37:33;5.30;92.80
48994;DHT22;34804;49.214;12.276;2024-03-06T01:40:00;5.30;92.60
48994;DHT22;34804;49.214;12.276;2024-03-06T01:42:27;5.30;92.50
48994;DHT22;34804;49.214;12.276;2024-03-06T01:44:56;5.30;92.70
48994;DHT22;34804;49.214;12.276;2024-03-06T01:47:23;5.30;92.80
48994;DHT22;34804;49.214;12.276;2024-03-06T01:49:50;5.40;92.80
48994;DHT22;34804;49.214;12.276;2024-03-06T01:52:18;5.40;92.90
48994;DHT22;34804;49.214;12.276;2024-03-06T01:54:48;5.50;92.90
48994;DHT22;34804;49.214;12.276;2024-03-06T01:57:17;5.50;93.00
48994;DHT22;34804;49.214;12.276;2024-03-06T01:59:44;5.50;92.70
48994;DHT22;34804;49.214;12.276;2024-03-06T02:02:11;5.50;92.40
48994;DHT22;34804;49.214;12.276;2024-03-06T02:04:38;5.50;92.70
48994;DHT22;34804;49.214;12.276;2024-03-06T02:07:09;5.50;92.60
48994;DHT22;34804;49.214;12.276;2024-03-06T02:09:39;5.50;92.30
48994;DHT22;34804;49.214;12.276;2024-03-06T02:12:07;5.40;92.10
48994;DHT22;34804;49.214;12.276;2024-03-06T02:14:36;5.50;92.10
48994;DHT22;34804;49.214;12.276;2024-03-06T02:17:03;5.40;92.20
48994;DHT22;34804;49.214;12.276;2024-03-06T02:19:41;5.50;92.30
48994;DHT22;34804;49.214;12.276;2024-03-06T02:22:08;5.50;92.00
48994;DHT22;34804;49.214;12.276;2024-03-06T02:24:36;5.40;91.60
48994;DHT22;34804;49.214;12.276;2024-03-06T02:27:03;5.30;91.80
48994;DHT22;34804;49.214;12.276;2024-03-06T02:29:33;5.30;91.70
48994;DHT22;34804;49.214;12.276;2024-03-06T02:32:00;5.30;91.70
48994;DHT22;34804;49.214;12.276;2024-03-06T02:34:29;5.10;91.80
48994;DHT22;34804;49.214;12.276;2024-03-06T02:36:58;5.10;91.80
48994;DHT22;34804;49.214;12.276;2024-03-06T02:39:25;5.10;91.90
48994;DHT22;34804;49.214;12.276;2024-03-06T02:41:52;5.10;92.10
48994;DHT22;34804;49.214;12.276;2024-03-06T02:44:19;5.10;92.10
48994;DHT22;34804;49.214;12.276;2024-03-06T02:46:50;5.10;92.20
48994;DHT22;34804;49.214;12.276;2024-03-06T02:49:17;5.10;92.20
48994;DHT22;34804;49.214;12.276;2024-03-06T02:51:45;5.00;92.20
48994;DHT22;34804;49.214;12.276;2024-03-06T02:54:12;4.90;92.80
48994;DHT22;34804;49.214;12.276;2024-03-06T02:56:38;4.90;93.20
48994;DHT22;34804;49.214;12.276;2024-03-06T02:59:05;4.90;93.30
48994;DHT22;34804;49.214;12.276;2024-03-06T03:01:32;4.90;93.20
48994;DHT22;34804;49.214;12.276;2024-03-06T03:03:59;4.90;93.40
48994;DHT22;34804;49.214;12.276;2024-03-06T03:06:27;4.90;93.00
48994;DHT22;34804;49.214;12.276;2024-03-06T03:08:54;4.90;93.30
48994;DHT22;34804;49.214;12.276;2024-03-06T03:11:21;4.90;93.30
48994;DHT22;34804;49.214;12.276;2024-03-06T03:13:47;5.00;93.30
48994;DHT22;34804;49.214;12.276;2024-03-06T03:16:18;5.10;93.40
48994;DHT22;34804;49.214;12.276;2024-03-06T03:18:45;5.10;93.00
48994;DHT22;34804;49.214;12.276;2024-03-06T03:21:12;5.00;92.60
48994;DHT22;34804;49.214;12.276;2024-03-06T03:23:42;5.00;92.50
48994;DHT22;34804;49.214;12.276;2024-03-06T03:26:09;4.90;92.20
48994;DHT22;34804;49.214;12.276;2024-03-06T03:28:39;4.90;92.40
48994;DHT22;34804;49.214;12.276;2024-03-06T03:31:09;4.90;92.50
48994;DHT22;34804;49.214;12.276;2024-03-06T03:33:40;4.80;92.40
48994;DHT22;34804;49.214;12.276;2024-03-06T03:36:08;4.80;92.30
48994;DHT22;34804;49.214;12.276;2024-03-06T03:38:37;4.70;92.40
48994;DHT22;34804;49.214;12.276;2024-03-06T03:41:12;4.60;92.30
48994;DHT22;34804;49.214;12.276;2024-03-06T03:43:39;4.40;92.20
48994;DHT22;34804;49.214;12.276;2024-03-06T03:46:07;4.40;92.30
48994;DHT22;34804;49.214;12.276;2024-03-06T03:48:33;4.30;91.80
48994;DHT22;34804;49.214;12.276;2024-03-06T03:51:06;4.10;91.90
48994;DHT22;34804;49.214;12.276;2024-03-06T03:53:34;3.90;92.10
48994;DHT22;34804;49.214;12.276;2024-03-06T03:56:02;3.80;92.30
48994;DHT22;34804;49.214;12.276;2024-03-06T03:58:30;3.80;92.70
48994;DHT22;34804;49.214;12.276;2024-03-06T04:00:57;3.80;92.90
48994;DHT22;34804;49.214;12.276;2024-03-06T04:03:24;3.80;93.00
48994;DHT22;34804;49.214;12.276;2024-03-06T04:05:51;3.70;93.20
48994;DHT22;34804;49.214;12.276;2024-03-06T04:08:18;3.70;93.50
48994;DHT22;34804;49.214;12.276;2024-03-06T04:10:45;3.70;93.30
48994;DHT22;34804;49.214;12.276;2024-03-06T04:13:15;3.70;93.00
48994;DHT22;34804;49.214;12.276;2024-03-06T04:15:43;3.50;93.10
48994;DHT22;34804;49.214;12.276;2024-03-06T04:18:10;3.60;93.30
48994;DHT22;34804;49.214;12.276;2024-03-06T04:20:37;3.50;93.20
48994;DHT22;34804;49.214;12.276;2024-03-06T04:23:04;3.50;93.00
48994;DHT22;34804;49.214;12.276;2024-03-06T04:25:31;3.50;93.00
48994;DHT22;34804;49.214;12.276;2024-03-06T04:27:58;3.50;93.20
48994;DHT22;34804;49.214;12.276;2024-03-06T04:30:25;3.60;93.30
48994;DHT22;34804;49.214;12.276;2024-03-06T04:32:51;3.70;93.60
48994;DHT22;34804;49.214;12.276;2024-03-06T04:35:18;3.70;93.30
48994;DHT22;34804;49.214;12.276;2024-03-06T04:37:45;3.70;93.40
48994;DHT22;34804;49.214;12.276;2024-03-06T04:40:12;3.70;93.40
48994;DHT22;34804;49.214;12.276;2024-03-06T04:42:41;3.80;93.60
48994;DHT22;34804;49.214;12.276;2024-03-06T04:45:11;3.80;93.60
48994;DHT22;34804;49.214;12.276;2024-03-06T04:47:42;3.80;93.60
48994;DHT22;34804;49.214;12.276;2024-03-06T04:50:10;3.80;93.50
48994;DHT22;34804;49.214;12.276;2024-03-06T04:52:38;3.80;93.60
48994;DHT22;34804;49.214;12.276;2024-03-06T04:55:06;3.90;93.60
48994;DHT22;34804;49.214;12.276;2024-03-06T04:57:34;4.00;93.80
48994;DHT22;34804;49.214;12.276;2024-03-06T05:00:01;4.00;93.60
48994;DHT22;34804;49.214;12.276;2024-03-06T05:02:32;4.00;93.60
48994;DHT22;34804;49.214;12.276;2024-03-06T05:05:18;4.10;93.60
48994;DHT22;34804;49.214;12.276;2024-03-06T05:08:02;4.00;93.40
48994;DHT22;34804;49.214;12.276;2024-03-06T05:10:47;4.00;93.20
48994;DHT22;34804;49.214;12.276;2024-03-06T05:13:31;3.90;93.20
48994;DHT22;34804;49.214;12.276;2024-03-06T05:16:15;3.90;93.20
48994;DHT22;34804;49.214;12.276;2024-03-06T05:19:00;3.90;93.20
48994;DHT22;34804;49.214;12.276;2024-03-06T05:21:45;3.90;93.40
48994;DHT22;34804;49.214;12.276;2024-03-06T05:24:29;3.90;93.60
48994;DHT22;34804;49.214;12.276;2024-03-06T05:27:14;4.00;93.90
48994;DHT22;34804;49.214;12.276;2024-03-06T05:30:01;4.10;93.80
48994;DHT22;34804;49.214;12.276;2024-03-06T05:32:45;4.20;93.70
48994;DHT22;34804;49.214;12.276;2024-03-06T05:35:31;4.30;93.50
48994;DHT22;34804;49.214;12.276;2024-03-06T05:38:15;4.30;93.60
48994;DHT22;34804;49.214;12.276;2024-03-06T05:40:59;4.40;93.50
48994;DHT22;34804;49.214;12.276;2024-03-06T05:43:44;4.30;93.50
48994;DHT22;34804;49.214;12.276;2024-03-06T05:46:28;4.40;93.60
48994;DHT22;34804;49.214;12.276;2024-03-06T05:49:13;4.50;93.80
48994;DHT22;34804;49.214;12.276;2024-03-06T05:51:58;4.60;93.40
48994;DHT22;34804;49.214;12.276;2024-03-06T05:54:42;4.50;93.00
48994;DHT22;34804;49.214;12.276;2024-03-06T05:57:26;4.50;93.00
48994;DHT22;34804;49.214;12.276;2024-03-06T06:00:11;4.50;93.30
48994;DHT22;34804;49.214;12.276;2024-03-06T06:02:38;4.60;93.60
48994;DHT22;34804;49.214;12.276;2024-03-06T06:05:05;4.60;93.80
48994;DHT22;34804;49.214;12.276;2024-03-06T06:07:49;4.70;93.80
48994;DHT22;34804;49.214;12.276;2024-03-06T06:10:16;4.70;93.80
48994;DHT22;34804;49.214;12.276;2024-03-06T06:12:47;4.80;93.90
48994;DHT22;34804;49.214;12.276;2024-03-06T06:15:14;4.80;93.90
48994;DHT22;34804;49.214;12.276;2024-03-06T06:17:42;4.80;93.90
48994;DHT22;34804;49.214;12.276;2024-03-06T06:20:12;4.80;94.00
48994;DHT22;34804;49.214;12.276;2024-03-06T06:22:43;4.90;94.10
48994;DHT22;34804;49.214;12.276;2024-03-06T06:25:10;4.90;93.90
48994;DHT22;34804;49.214;12.276;2024-03-06T06:27:38;4.90;94.00
48994;DHT22;34804;49.214;12.276;2024-03-06T06:30:06;5.00;93.90
48994;DHT22;34804;49.214;12.276;2024-03-06T06:32:40;5.10;93.90
48994;DHT22;34804;49.214;12.276;2024-03-06T06:35:09;5.10;93.90
48994;DHT22;34804;49.214;12.276;2024-03-06T06:37:37;5.10;94.00
48994;DHT22;34804;49.214;12.276;2024-03-06T06:40:05;5.10;94.00
48994;DHT22;34804;49.214;12.276;2024-03-06T06:42:34;5.20;93.90
48994;DHT22;34804;49.214;12.276;2024-03-06T06:45:01;5.30;93.90
48994;DHT22;34804;49.214;12.276;2024-03-06T06:47:29;5.30;93.50
48994;DHT22;34804;49.214;12.276;2024-03-06T06:49:57;5.30;93.50
48994;DHT22;34804;49.214;12.276;2024-03-06T06:52:23;5.40;93.70
48994;DHT22;34804;49.214;12.276;2024-03-06T06:54:54;5.40;93.80
48994;DHT22;34804;49.214;12.276;2024-03-06T06:57:20;5.50;93.80
48994;DHT22;34804;49.214;12.276;2024-03-06T06:59:47;5.60;93.70
48994;DHT22;34804;49.214;12.276;2024-03-06T07:02:14;5.70;93.70
48994;DHT22;34804;49.214;12.276;2024-03-06T07:04:41;5.70;93.70
48994;DHT22;34804;49.214;12.276;2024-03-06T07:07:08;5.80;93.70
48994;DHT22;34804;49.214;12.276;2024-03-06T07:09:35;5.90;93.70
48994;DHT22;34804;49.214;12.276;2024-03-06T07:12:01;6.00;93.60
48994;DHT22;34804;49.214;12.276;2024-03-06T07:14:29;6.10;93.30
48994;DHT22;34804;49.214;12.276;2024-03-06T07:16:56;6.20;93.20
48994;DHT22;34804;49.214;12.276;2024-03-06T07:19:23;6.20;93.00
48994;DHT22;34804;49.214;12.276;2024-03-06T07:21:50;6.30;92.70
48994;DHT22;34804;49.214;12.276;2024-03-06T07:24:18;6.40;92.50
48994;DHT22;34804;49.214;12.276;2024-03-06T07:26:45;6.50;92.10
48994;DHT22;34804;49.214;12.276;2024-03-06T07:29:12;6.50;92.00
48994;DHT22;34804;49.214;12.276;2024-03-06T07:31:42;6.60;91.80
48994;DHT22;34804;49.214;12.276;2024-03-06T07:34:10;6.70;91.40
48994;DHT22;34804;49.214;12.276;2024-03-06T07:36:37;6.70;91.00
48994;DHT22;34804;49.214;12.276;2024-03-06T07:39:04;6.80;90.60
48994;DHT22;34804;49.214;12.276;2024-03-06T07:41:31;6.80;90.40
48994;DHT22;34804;49.214;12.276;2024-03-06T07:44:02;6.90;90.30
48994;DHT22;34804;49.214;12.276;2024-03-06T07:46:29;7.00;90.20
48994;DHT22;34804;49.214;12.276;2024-03-06T07:48:56;7.10;89.90
48994;DHT22;34804;49.214;12.276;2024-03-06T07:51:23;7.30;89.50
48994;DHT22;34804;49.214;12.276;2024-03-06T07:53:50;7.40;89.40
48994;DHT22;34804;49.214;12.276;2024-03-06T07:56:17;7.60;88.50
48994;DHT22;34804;49.214;12.276;2024-03-06T07:58:44;7.60;87.80
48994;DHT22;34804;49.214;12.276;2024-03-06T08:01:11;7.70;87.70
48994;DHT22;34804;49.214;12.276;2024-03-06T08:03:39;7.60;86.30
48994;DHT22;34804;49.214;12.276;2024-03-06T08:06:07;7.70;86.20
48994;DHT22;34804;49.214;12.276;2024-03-06T08:08:35;7.70;86.50
48994;DHT22;34804;49.214;12.276;2024-03-06T08:11:02;7.70;85.70
48994;DHT22;34804;49.214;12.276;2024-03-06T08:13:30;7.80;85.40
48994;DHT22;34804;49.214;12.276;2024-03-06T08:15:56;7.70;85.50
48994;DHT22;34804;49.214;12.276;2024-03-06T08:18:23;7.70;85.50
48994;DHT22;34804;49.214;12.276;2024-03-06T08:20:50;7.70;85.20
48994;DHT22;34804;49.214;12.276;2024-03-06T08:23:17;7.80;85.40
48994;DHT22;34804;49.214;12.276;2024-03-06T08:25:44;8.00;86.20
48994;DHT22;34804;49.214;12.276;2024-03-06T08:28:11;8.10;85.40
48994;DHT22;34804;49.214;12.276;2024-03-06T08:30:38;8.20;84.10
48994;DHT22;34804;49.214;12.276;2024-03-06T08:33:05;8.30;84.50
48994;DHT22;34804;49.214;12.276;2024-03-06T08:35:32;8.30;84.10
48994;DHT22;34804;49.214;12.276;2024-03-06T08:38:00;8.40;83.20
48994;DHT22;34804;49.214;12.276;2024-03-06T08:40:27;8.50;83.00
48994;DHT22;34804;49.214;12.276;2024-03-06T08:42:54;8.60;83.20
48994;DHT22;34804;49.214;12.276;2024-03-06T08:45:21;8.40;82.40
48994;DHT22;34804;49.214;12.276;2024-03-06T08:47:49;8.60;82.80
48994;DHT22;34804;49.214;12.276;2024-03-06T08:50:17;8.50;81.80
48994;DHT22;34804;49.214;12.276;2024-03-06T08:52:45;8.50;82.80
48994;DHT22;34804;49.214;12.276;2024-03-06T08:55:28;8.60;82.40
48994;DHT22;34804;49.214;12.276;2024-03-06T08:57:55;8.60;82.10
48994;DHT22;34804;49.214;12.276;2024-03-06T09:00:22;8.60;81.80
48994;DHT22;34804;49.214;12.276;2024-03-06T09:02:49;8.50;81.40
48994;DHT22;34804;49.214;12.276;2024-03-06T09:05:16;8.60;81.70
48994;DHT22;34804;49.214;12.276;2024-03-06T09:07:43;8.70;81.30
48994;DHT22;34804;49.214;12.276;2024-03-06T09:10:11;9.00;81.90
48994;DHT22;34804;49.214;12.276;2024-03-06T09:12:38;9.40;81.20
48994;DHT22;34804;49.214;12.276;2024-03-06T09:15:05;9.60;78.70
48994;DHT22;34804;49.214;12.276;2024-03-06T09:17:37;9.80;77.60
48994;DHT22;34804;49.214;12.276;2024-03-06T09:20:07;10.10;76.80
48994;DHT22;34804;49.214;12.276;2024-03-06T09:22:40;10.40;76.20
48994;DHT22;34804;49.214;12.276;2024-03-06T09:25:07;10.50;75.70
48994;DHT22;34804;49.214;12.276;2024-03-06T09:27:34;10.70;75.00
48994;DHT22;34804;49.214;12.276;2024-03-06T09:30:01;10.90;73.80
48994;DHT22;34804;49.214;12.276;2024-03-06T09:32:30;10.80;74.50
48994;DHT22;34804;49.214;12.276;2024-03-06T09:34:58;11.10;74.70
48994;DHT22;34804;49.214;12.276;2024-03-06T09:37:26;11.20;73.40
48994;DHT22;34804;49.214;12.276;2024-03-06T09:39:53;11.10;72.50
48994;DHT22;34804;49.214;12.276;2024-03-06T09:42:20;10.80;71.60
48994;DHT22;34804;49.214;12.276;2024-03-06T09:44:47;10.50;73.10
48994;DHT22;34804;49.214;12.276;2024-03-06T09:47:20;10.10;74.00
48994;DHT22;34804;49.214;12.276;2024-03-06T09:49:51;9.90;74.60
48994;DHT22;34804;49.214;12.276;2024-03-06T09:52:24;10.00;75.60
48994;DHT22;34804;49.214;12.276;2024-03-06T09:54:54;10.20;76.30
48994;DHT22;34804;49.214;12.276;2024-03-06T09:57:22;10.20;73.90
48994;DHT22;34804;49.214;12.276;2024-03-06T09:59:49;10.10;74.50
48994;DHT22;34804;49.214;12.276;2024-03-06T10:02:30;10.10;75.80
48994;DHT22;34804;49.214;12.276;2024-03-06T10:05:00;10.30;74.90
48994;DHT22;34804;49.214;12.276;2024-03-06T10:07:27;10.30;74.10
48994;DHT22;34804;49.214;12.276;2024-03-06T10:09:55;10.40;74.30
48994;DHT22;34804;49.214;12.276;2024-03-06T10:12:22;10.40;74.80
48994;DHT22;34804;49.214;12.276;2024-03-06T10:14:52;10.50;75.10
48994;DHT22;34804;49.214;12.276;2024-03-06T10:17:22;10.50;75.20
48994;DHT22;34804;49.214;12.276;2024-03-06T10:19:50;10.10;73.90
48994;DHT22;34804;49.214;12.276;2024-03-06T10:22:20;10.10;75.10
48994;DHT22;34804;49.214;12.276;2024-03-06T10:24:47;10.10;75.40
48994;DHT22;34804;49.214;12.276;2024-03-06T10:27:16;10.10;75.30
48994;DHT22;34804;49.214;12.276;2024-03-06T10:29:46;10.10;75.10
48994;DHT22;34804;49.214;12.276;2024-03-06T10:32:16;10.40;76.30
48994;DHT22;34804;49.214;12.276;2024-03-06T10:34:45;10.80;75.00
48994;DHT22;34804;49.214;12.276;2024-03-06T10:37:13;10.80;72.80
48994;DHT22;34804;49.214;12.276;2024-03-06T10:39:42;10.70;73.20
48994;DHT22;34804;49.214;12.276;2024-03-06T10:42:13;10.50;72.80
48994;DHT22;34804;49.214;12.276;2024-03-06T10:44:50;10.40;73.10
48994;DHT22;34804;49.214;12.276;2024-03-06T10:47:19;10.30;73.40
48994;DHT22;34804;49.214;12.276;2024-03-06T10:49:46;10.10;72.90
48994;DHT22;34804;49.214;12.276;2024-03-06T10:52:14;10.00;73.10
48994;DHT22;34804;49.214;12.276;2024-03-06T10:54:44;10.00;72.90
48994;DHT22;34804;49.214;12.276;2024-03-06T10:57:13;9.90;72.80
48994;DHT22;34804;49.214;12.276;2024-03-06T10:59:40;9.80;73.30
48994;DHT22;34804;49.214;12.276;2024-03-06T11:02:10;9.90;72.40
48994;DHT22;34804;49.214;12.276;2024-03-06T11:04:40;10.00;72.10
48994;DHT22;34804;49.214;12.276;2024-03-06T11:07:08;10.10;71.50
48994;DHT22;34804;49.214;12.276;2024-03-06T11:09:40;10.30;71.60
48994;DHT22;34804;49.214;12.276;2024-03-06T11:12:07;10.20;70.80
48994;DHT22;34804;49.214;12.276;2024-03-06T11:14:38;10.00;71.60
48994;DHT22;34804;49.214;12.276;2024-03-06T11:17:09;10.00;71.80
48994;DHT22;34804;49.214;12.276;2024-03-06T11:28:24;10.20;71.20
48994;DHT22;34804;49.214;12.276;2024-03-06T11:33:20;10.30;69.90
48994;DHT22;34804;49.214;12.276;2024-03-06T11:36:25;10.40;70.50
48994;DHT22;34804;49.214;12.276;2024-03-06T11:38:59;10.30;69.80
48994;DHT22;34804;49.214;12.276;2024-03-06T11:41:46;10.30;68.60
48994;DHT22;34804;49.214;12.276;2024-03-06T11:44:21;10.60;69.70
48994;DHT22;34804;49.214;12.276;2024-03-06T11:49:22;11.30;67.60
48994;DHT22;34804;49.214;12.276;2024-03-06T11:51:53;11.10;66.60
48994;DHT22;34804;49.214;12.276;2024-03-06T11:54:20;11.20;67.60
48994;DHT22;34804;49.214;12.276;2024-03-06T11:56:51;11.20;66.90
48994;DHT22;34804;49.214;12.276;2024-03-06T11:59:28;10.80;67.30
48994;DHT22;34804;49.214;12.276;2024-03-06T12:01:56;10.90;68.30
48994;DHT22;34804;49.214;12.276;2024-03-06T12:04:24;10.90;67.70
48994;DHT22;34804;49.214;12.276;2024-03-06T12:06:51;10.90;67.20
48994;DHT22;34804;49.214;12.276;2024-03-06T12:09:18;10.80;66.70
48994;DHT22;34804;49.214;12.276;2024-03-06T12:11:47;10.80;67.40
48994;DHT22;34804;49.214;12.276;2024-03-06T12:14:20;10.90;68.50
48994;DHT22;34804;49.214;12.276;2024-03-06T12:17:00;11.10;67.40
48994;DHT22;34804;49.214;12.276;2024-03-06T12:19:35;11.30;66.70
48994;DHT22;34804;49.214;12.276;2024-03-06T12:22:03;11.60;66.00
48994;DHT22;34804;49.214;12.276;2024-03-06T12:24:33;11.80;64.00
48994;DHT22;34804;49.214;12.276;2024-03-06T12:27:01;11.30;63.90
48994;DHT22;34804;49.214;12.276;2024-03-06T12:29:30;11.00;66.10
48994;DHT22;34804;49.214;12.276;2024-03-06T12:31:59;10.90;66.30
48994;DHT22;34804;49.214;12.276;2024-03-06T12:34:26;10.80;66.50
48994;DHT22;34804;49.214;12.276;2024-03-06T12:36:53;11.00;68.00
48994;DHT22;34804;49.214;12.276;2024-03-06T12:39:20;11.60;66.00
48994;DHT22;34804;49.214;12.276;2024-03-06T12:41:50;11.40;64.30
48994;DHT22;34804;49.214;12.276;2024-03-06T12:44:19;11.30;65.20
48994;DHT22;34804;49.214;12.276;2024-03-06T12:46:47;11.10;65.40
48994;DHT22;34804;49.214;12.276;2024-03-06T12:49:14;11.10;65.90
48994;DHT22;34804;49.214;12.276;2024-03-06T12:51:41;11.20;66.60
48994;DHT22;34804;49.214;12.276;2024-03-06T12:54:08;11.10;64.60
48994;DHT22;34804;49.214;12.276;2024-03-06T12:56:35;11.00;64.50
48994;DHT22;34804;49.214;12.276;2024-03-06T12:59:03;11.20;64.50
48994;DHT22;34804;49.214;12.276;2024-03-06T13:01:30;11.30;65.90
48994;DHT22;34804;49.214;12.276;2024-03-06T13:03:58;11.30;65.40
48994;DHT22;34804;49.214;12.276;2024-03-06T13:06:33;11.60;65.40
48994;DHT22;34804;49.214;12.276;2024-03-06T13:08:59;11.80;64.80
48994;DHT22;34804;49.214;12.276;2024-03-06T13:11:26;11.90;64.00
48994;DHT22;34804;49.214;12.276;2024-03-06T13:13:53;11.90;64.40
48994;DHT22;34804;49.214;12.276;2024-03-06T13:16:20;11.90;61.70
48994;DHT22;34804;49.214;12.276;2024-03-06T13:18:48;11.60;63.70
48994;DHT22;34804;49.214;12.276;2024-03-06T13:21:16;11.70;63.60
48994;DHT22;34804;49.214;12.276;2024-03-06T13:23:43;11.60;62.30
48994;DHT22;34804;49.214;12.276;2024-03-06T13:26:10;11.20;63.50
48994;DHT22;34804;49.214;12.276;2024-03-06T13:28:37;11.00;64.70
48994;DHT22;34804;49.214;12.276;2024-03-06T13:31:04;10.90;64.50
48994;DHT22;34804;49.214;12.276;2024-03-06T13:33:33;10.80;65.50
48994;DHT22;34804;49.214;12.276;2024-03-06T13:36:00;10.60;64.80
48994;DHT22;34804;49.214;12.276;2024-03-06T13:38:31;10.70;66.30
48994;DHT22;34804;49.214;12.276;2024-03-06T13:40:58;10.70;66.60
48994;DHT22;34804;49.214;12.276;2024-03-06T13:43:25;10.40;67.70
48994;DHT22;34804;49.214;12.276;2024-03-06T13:45:52;10.40;67.40
48994;DHT22;34804;49.214;12.276;2024-03-06T13:48:19;10.30;67.70
48994;DHT22;34804;49.214;12.276;2024-03-06T13:50:46;10.30;67.80
48994;DHT22;34804;49.214;12.276;2024-03-06T13:53:15;10.20;67.70
48994;DHT22;34804;49.214;12.276;2024-03-06T13:55:41;10.20;68.80
48994;DHT22;34804;49.214;12.276;2024-03-06T13:58:08;10.10;67.70
48994;DHT22;34804;49.214;12.276;2024-03-06T14:00:35;10.30;68.20
48994;DHT22;34804;49.214;12.276;2024-03-06T14:03:02;10.10;66.80
48994;DHT22;34804;49.214;12.276;2024-03-06T14:05:29;10.10;66.60
48994;DHT22;34804;49.214;12.276;2024-03-06T14:07:56;10.10;66.60
48994;DHT22;34804;49.214;12.276;2024-03-06T14:10:23;10.20;66.90
48994;DHT22;34804;49.214;12.276;2024-03-06T14:12:51;10.20;66.40
48994;DHT22;34804;49.214;12.276;2024-03-06T14:15:19;10.30;66.70
48994;DHT22;34804;49.214;12.276;2024-03-06T14:17:46;10.50;66.90
48994;DHT22;34804;49.214;12.276;2024-03-06T14:20:13;10.50;66.50
48994;DHT22;34804;49.214;12.276;2024-03-06T14:22:42;10.60;65.90
48994;DHT22;34804;49.214;12.276;2024-03-06T14:25:09;10.60;66.20
48994;DHT22;34804;49.214;12.276;2024-03-06T14:27:38;10.60;66.60
48994;DHT22;34804;49.214;12.276;2024-03-06T14:30:05;10.50;66.50
48994;DHT22;34804;49.214;12.276;2024-03-06T14:32:37;10.60;67.60
48994;DHT22;34804;49.214;12.276;2024-03-06T14:35:04;10.60;66.90
48994;DHT22;34804;49.214;12.276;2024-03-06T14:37:31;10.30;67.30
48994;DHT22;34804;49.214;12.276;2024-03-06T14:39:58;10.20;68.00
48994;DHT22;34804;49.214;12.276;2024-03-06T14:42:30;10.10;67.30
48994;DHT22;34804;49.214;12.276;2024-03-06T14:44:57;10.10;67.40
48994;DHT22;34804;49.214;12.276;2024-03-06T14:47:25;9.90;67.40
48994;DHT22;34804;49.214;12.276;2024-03-06T14:49:53;9.90;68.10
48994;DHT22;34804;49.214;12.276;2024-03-06T14:52:20;10.00;68.40
48994;DHT22;34804;49.214;12.276;2024-03-06T14:54:47;10.10;68.80
48994;DHT22;34804;49.214;12.276;2024-03-06T14:57:14;10.00;68.00
48994;DHT22;34804;49.214;12.276;2024-03-06T14:59:41;10.00;68.00
48994;DHT22;34804;49.214;12.276;2024-03-06T15:02:08;10.00;67.00
48994;DHT22;34804;49.214;12.276;2024-03-06T15:04:35;9.90;66.90
48994;DHT22;34804;49.214;12.276;2024-03-06T15:07:02;9.90;66.40
48994;DHT22;34804;49.214;12.276;2024-03-06T15:09:28;9.90;66.40
48994;DHT22;34804;49.214;12.276;2024-03-06T15:11:55;9.90;65.80
48994;DHT22;34804;49.214;12.276;2024-03-06T15:14:24;9.90;66.00
48994;DHT22;34804;49.214;12.276;2024-03-06T15:16:51;10.10;65.50
48994;DHT22;34804;49.214;12.276;2024-03-06T15:19:18;10.10;64.90
48994;DHT22;34804;49.214;12.276;2024-03-06T15:21:45;9.90;65.20
48994;DHT22;34804;49.214;12.276;2024-03-06T15:24:12;10.00;64.20
48994;DHT22;34804;49.214;12.276;2024-03-06T15:26:39;9.90;64.40
48994;DHT22;34804;49.214;12.276;2024-03-06T15:29:06;9.80;64.80
48994;DHT22;34804;49.214;12.276;2024-03-06T15:31:33;9.90;65.20
48994;DHT22;34804;49.214;12.276;2024-03-06T15:34:00;10.00;64.40
48994;DHT22;34804;49.214;12.276;2024-03-06T15:36:28;9.90;64.50
48994;DHT22;34804;49.214;12.276;2024-03-06T15:38:55;9.90;64.90
48994;DHT22;34804;49.214;12.276;2024-03-06T15:41:24;10.20;65.40
48994;DHT22;34804;49.214;12.276;2024-03-06T15:43:51;10.10;65.00
48994;DHT22;34804;49.214;12.276;2024-03-06T15:46:18;10.00;65.10
48994;DHT22;34804;49.214;12.276;2024-03-06T15:48:45;9.80;65.80
48994;DHT22;34804;49.214;12.276;2024-03-06T15:51:12;9.80;65.80